sensor_id;sensor_type;location;lat;lon;timestamp;pressure;altitude;pressure_sealevel;temperature;humidity
60170;BME280;46042;49.444;6.862;2023-07-08T00:01:13;98614.81;;;18.86;62.39
60170;BME280;46042;49.444;6.862;2023-07-08T00:03:40;98610.56;;;18.75;63.52
60170;BME280;46042;49.444;6.862;2023-07-08T00:06:22;98616.38;;;18.70;64.27
60170;BME280;46042;49.444;6.862;2023-07-08T00:08:49;98610.56;;;18.75;63.07
60170;BME280;46042;49.444;6.862;2023-07-08T00:11:17;98606.56;;;18.71;64.11
60170;BME280;46042;49.444;6.862;2023-07-08T00:13:44;98603.19;;;18.69;64.22
60170;BME280;46042;49.444;6.862;2023-07-08T00:16:13;98607.91;;;18.75;62.51
60170;BME280;46042;49.444;6.862;2023-07-08T00:18:41;98607.75;;;18.76;62.46
60170;BME280;46042;49.444;6.862;2023-07-08T00:21:09;98599.13;;;18.83;61.41
60170;BME280;46042;49.444;6.862;2023-07-08T00:23:36;98601.94;;;18.81;61.50
60170;BME280;46042;49.444;6.862;2023-07-08T00:26:10;98607.34;;;18.89;60.39
60170;BME280;46042;49.444;6.862;2023-07-08T00:28:37;98596.81;;;18.88;61.57
60170;BME280;46042;49.444;6.862;2023-07-08T00:31:09;98597.34;;;18.91;61.25
60170;BME280;46042;49.444;6.862;2023-07-08T00:33:36;98601.47;;;18.86;60.40
60170;BME280;46042;49.444;6.862;2023-07-08T00:36:08;98602.16;;;18.88;61.47
60170;BME280;46042;49.444;6.862;2023-07-08T00:38:37;98600.50;;;18.87;61.63
60170;BME280;46042;49.444;6.862;2023-07-08T00:41:14;98602.47;;;18.85;62.30
60170;BME280;46042;49.444;6.862;2023-07-08T00:43:52;98598.13;;;18.84;62.37
60170;BME280;46042;49.444;6.862;2023-07-08T00:51:54;98592.75;;;18.75;61.28
60170;BME280;46042;49.444;6.862;2023-07-08T00:54:21;98592.53;;;18.69;61.12
60170;BME280;46042;49.444;6.862;2023-07-08T00:57:00;98590.16;;;18.66;63.13
60170;BME280;46042;49.444;6.862;2023-07-08T01:00:05;98593.44;;;18.59;64.12
60170;BME280;46042;49.444;6.862;2023-07-08T01:02:37;98595.88;;;18.53;63.86
60170;BME280;46042;49.444;6.862;2023-07-08T01:05:08;98590.31;;;18.46;63.84
60170;BME280;46042;49.444;6.862;2023-07-08T01:07:39;98592.47;;;18.42;63.24
60170;BME280;46042;49.444;6.862;2023-07-08T01:10:15;98594.75;;;18.37;65.13
60170;BME280;46042;49.444;6.862;2023-07-08T01:12:46;98590.72;;;18.33;63.87
60170;BME280;46042;49.444;6.862;2023-07-08T01:15:15;98591.03;;;18.30;63.41
60170;BME280;46042;49.444;6.862;2023-07-08T01:17:43;98584.59;;;18.23;64.06
60170;BME280;46042;49.444;6.862;2023-07-08T01:20:11;98583.25;;;18.18;64.06
60170;BME280;46042;49.444;6.862;2023-07-08T01:22:41;98581.56;;;18.17;64.72
60170;BME280;46042;49.444;6.862;2023-07-08T01:25:09;98584.41;;;18.16;63.42
60170;BME280;46042;49.444;6.862;2023-07-08T01:27:40;98587.34;;;18.13;63.69
60170;BME280;46042;49.444;6.862;2023-07-08T01:30:08;98594.84;;;18.09;64.42
60170;BME280;46042;49.444;6.862;2023-07-08T01:32:39;98586.69;;;18.01;64.80
60170;BME280;46042;49.444;6.862;2023-07-08T01:35:11;98583.06;;;18.02;64.16
60170;BME280;46042;49.444;6.862;2023-07-08T01:37:46;98579.00;;;17.98;64.45
60170;BME280;46042;49.444;6.862;2023-07-08T01:40:37;98583.09;;;17.92;64.15
60170;BME280;46042;49.444;6.862;2023-07-08T01:43:05;98580.75;;;17.89;65.14
60170;BME280;46042;49.444;6.862;2023-07-08T01:45:36;98592.41;;;17.88;65.68
60170;BME280;46042;49.444;6.862;2023-07-08T01:48:07;98580.38;;;17.84;64.10
60170;BME280;46042;49.444;6.862;2023-07-08T01:50:37;98590.84;;;17.85;65.18
60170;BME280;46042;49.444;6.862;2023-07-08T01:53:15;98587.50;;;17.83;65.11
60170;BME280;46042;49.444;6.862;2023-07-08T01:55:42;98586.44;;;17.76;67.02
60170;BME280;46042;49.444;6.862;2023-07-08T01:58:08;98584.09;;;17.73;66.42
60170;BME280;46042;49.444;6.862;2023-07-08T02:00:35;98592.34;;;17.70;66.86
60170;BME280;46042;49.444;6.862;2023-07-08T02:03:02;98597.41;;;17.63;67.04
60170;BME280;46042;49.444;6.862;2023-07-08T02:05:28;98602.66;;;17.55;66.78
60170;BME280;46042;49.444;6.862;2023-07-08T02:07:55;98605.47;;;17.53;68.77
60170;BME280;46042;49.444;6.862;2023-07-08T02:10:22;98603.09;;;17.50;67.81
60170;BME280;46042;49.444;6.862;2023-07-08T02:12:52;98606.19;;;17.45;67.64
60170;BME280;46042;49.444;6.862;2023-07-08T02:15:19;98605.06;;;17.48;67.21
60170;BME280;46042;49.444;6.862;2023-07-08T02:17:45;98606.91;;;17.47;67.72
60170;BME280;46042;49.444;6.862;2023-07-08T02:20:12;98611.69;;;17.44;66.73
60170;BME280;46042;49.444;6.862;2023-07-08T02:22:39;98615.47;;;17.41;69.39
60170;BME280;46042;49.444;6.862;2023-07-08T02:25:06;98615.91;;;17.37;68.98
60170;BME280;46042;49.444;6.862;2023-07-08T02:27:32;98620.25;;;17.28;70.81
60170;BME280;46042;49.444;6.862;2023-07-08T02:29:59;98609.91;;;17.25;69.29
60170;BME280;46042;49.444;6.862;2023-07-08T02:32:26;98611.19;;;17.20;69.26
60170;BME280;46042;49.444;6.862;2023-07-08T02:34:53;98623.81;;;17.18;70.15
60170;BME280;46042;49.444;6.862;2023-07-08T02:37:19;98618.31;;;17.20;68.49
60170;BME280;46042;49.444;6.862;2023-07-08T02:39:46;98621.16;;;17.18;68.45
60170;BME280;46042;49.444;6.862;2023-07-08T02:42:12;98620.28;;;17.18;69.10
60170;BME280;46042;49.444;6.862;2023-07-08T02:44:39;98628.44;;;17.16;68.34
60170;BME280;46042;49.444;6.862;2023-07-08T02:47:06;98622.44;;;17.14;69.77
60170;BME280;46042;49.444;6.862;2023-07-08T02:49:32;98626.63;;;17.07;71.50
60170;BME280;46042;49.444;6.862;2023-07-08T02:52:00;98622.97;;;17.08;70.51
60170;BME280;46042;49.444;6.862;2023-07-08T02:54:26;98628.03;;;17.01;72.91
60170;BME280;46042;49.444;6.862;2023-07-08T02:56:53;98626.63;;;16.97;71.78
60170;BME280;46042;49.444;6.862;2023-07-08T02:59:20;98631.97;;;16.87;74.15
60170;BME280;46042;49.444;6.862;2023-07-08T03:01:46;98637.00;;;16.90;72.21
60170;BME280;46042;49.444;6.862;2023-07-08T03:04:14;98630.97;;;16.88;72.64
60170;BME280;46042;49.444;6.862;2023-07-08T03:06:44;98627.91;;;16.83;72.96
60170;BME280;46042;49.444;6.862;2023-07-08T03:09:12;98631.00;;;16.78;72.79
60170;BME280;46042;49.444;6.862;2023-07-08T03:11:39;98631.56;;;16.82;73.06
60170;BME280;46042;49.444;6.862;2023-07-08T03:14:06;98630.69;;;16.82;72.25
60170;BME280;46042;49.444;6.862;2023-07-08T03:16:33;98620.91;;;16.82;71.84
60170;BME280;46042;49.444;6.862;2023-07-08T03:19:00;98624.56;;;16.81;72.88
60170;BME280;46042;49.444;6.862;2023-07-08T03:21:26;98616.72;;;16.80;75.05
60170;BME280;46042;49.444;6.862;2023-07-08T03:23:53;98619.78;;;16.75;72.28
60170;BME280;46042;49.444;6.862;2023-07-08T03:26:23;98616.72;;;16.70;75.34
60170;BME280;46042;49.444;6.862;2023-07-08T03:28:51;98617.00;;;16.57;76.51
60170;BME280;46042;49.444;6.862;2023-07-08T03:31:18;98614.63;;;16.54;75.98
60170;BME280;46042;49.444;6.862;2023-07-08T03:33:44;98613.66;;;16.55;74.17
60170;BME280;46042;49.444;6.862;2023-07-08T03:36:14;98611.97;;;16.54;75.44
60170;BME280;46042;49.444;6.862;2023-07-08T03:38:57;98614.63;;;16.54;75.64
60170;BME280;46042;49.444;6.862;2023-07-08T03:41:24;98619.97;;;16.54;74.46
60170;BME280;46042;49.444;6.862;2023-07-08T03:43:52;98622.47;;;16.45;76.39
60170;BME280;46042;49.444;6.862;2023-07-08T03:46:20;98618.81;;;16.46;74.74
60170;BME280;46042;49.444;6.862;2023-07-08T03:48:50;98623.31;;;16.46;76.31
60170;BME280;46042;49.444;6.862;2023-07-08T03:51:21;98616.44;;;16.43;76.01
60170;BME280;46042;49.444;6.862;2023-07-08T03:53:48;98612.63;;;16.26;77.22
60170;BME280;46042;49.444;6.862;2023-07-08T03:56:15;98616.16;;;16.27;77.10
60170;BME280;46042;49.444;6.862;2023-07-08T03:58:42;98623.44;;;16.34;74.67
60170;BME280;46042;49.444;6.862;2023-07-08T04:01:16;98619.78;;;16.35;74.33
60170;BME280;46042;49.444;6.862;2023-07-08T04:03:44;98616.31;;;16.35;75.90
60170;BME280;46042;49.444;6.862;2023-07-08T04:06:11;98611.81;;;16.35;76.00
60170;BME280;46042;49.444;6.862;2023-07-08T04:08:38;98614.34;;;16.37;76.31
60170;BME280;46042;49.444;6.862;2023-07-08T04:11:04;98610.16;;;16.34;76.57
60170;BME280;46042;49.444;6.862;2023-07-08T04:13:32;98608.34;;;16.35;76.29
60170;BME280;46042;49.444;6.862;2023-07-08T04:16:01;98614.19;;;16.29;76.52
60170;BME280;46042;49.444;6.862;2023-07-08T04:18:29;98616.16;;;16.27;75.39
60170;BME280;46042;49.444;6.862;2023-07-08T04:20:56;98620.50;;;16.28;77.00
60170;BME280;46042;49.444;6.862;2023-07-08T04:23:26;98627.88;;;16.24;77.14
60170;BME280;46042;49.444;6.862;2023-07-08T04:25:55;98627.88;;;16.24;75.85
60170;BME280;46042;49.444;6.862;2023-07-08T04:28:23;98628.03;;;16.23;75.92
60170;BME280;46042;49.444;6.862;2023-07-08T04:30:49;98630.41;;;16.26;75.91
60170;BME280;46042;49.444;6.862;2023-07-08T04:33:16;98631.81;;;16.30;74.86
60170;BME280;46042;49.444;6.862;2023-07-08T04:35:43;98639.50;;;16.33;74.91
60170;BME280;46042;49.444;6.862;2023-07-08T04:38:16;98636.72;;;16.34;75.14
60170;BME280;46042;49.444;6.862;2023-07-08T04:40:44;98637.44;;;16.37;76.23
60170;BME280;46042;49.444;6.862;2023-07-08T04:43:10;98641.63;;;16.39;77.68
60170;BME280;46042;49.444;6.862;2023-07-08T04:45:43;98646.53;;;16.44;76.73
60170;BME280;46042;49.444;6.862;2023-07-08T04:48:13;98649.47;;;16.50;75.44
60170;BME280;46042;49.444;6.862;2023-07-08T04:50:42;98653.66;;;16.53;75.47
60170;BME280;46042;49.444;6.862;2023-07-08T04:53:10;98660.94;;;16.61;74.33
60170;BME280;46042;49.444;6.862;2023-07-08T04:55:52;98661.22;;;16.68;77.54
60170;BME280;46042;49.444;6.862;2023-07-08T04:58:19;98654.66;;;16.72;74.13
60170;BME280;46042;49.444;6.862;2023-07-08T05:00:46;98662.91;;;16.78;74.44
60170;BME280;46042;49.444;6.862;2023-07-08T05:03:13;98662.63;;;16.82;73.60
60170;BME280;46042;49.444;6.862;2023-07-08T05:05:40;98664.16;;;16.84;73.79
60170;BME280;46042;49.444;6.862;2023-07-08T05:08:07;98660.94;;;16.90;74.72
60170;BME280;46042;49.444;6.862;2023-07-08T05:10:34;98664.84;;;16.96;73.40
60170;BME280;46042;49.444;6.862;2023-07-08T05:13:01;98659.41;;;16.98;72.87
60170;BME280;46042;49.444;6.862;2023-07-08T05:15:27;98664.06;;;17.05;73.59
60170;BME280;46042;49.444;6.862;2023-07-08T05:17:54;98670.19;;;17.06;74.47
60170;BME280;46042;49.444;6.862;2023-07-08T05:20:21;98669.09;;;17.09;74.55
60170;BME280;46042;49.444;6.862;2023-07-08T05:22:49;98672.72;;;17.08;77.66
60170;BME280;46042;49.444;6.862;2023-07-08T05:25:18;98680.56;;;17.09;77.29
60170;BME280;46042;49.444;6.862;2023-07-08T05:27:47;98680.00;;;17.15;76.25
60170;BME280;46042;49.444;6.862;2023-07-08T05:30:16;98677.03;;;17.28;77.33
60170;BME280;46042;49.444;6.862;2023-07-08T05:32:43;98674.34;;;17.38;75.18
60170;BME280;46042;49.444;6.862;2023-07-08T05:35:10;98682.00;;;17.51;76.92
60170;BME280;46042;49.444;6.862;2023-07-08T05:37:37;98683.38;;;17.65;75.46
60170;BME280;46042;49.444;6.862;2023-07-08T05:40:08;98682.06;;;17.79;74.65
60170;BME280;46042;49.444;6.862;2023-07-08T05:42:35;98687.59;;;17.96;75.08
60170;BME280;46042;49.444;6.862;2023-07-08T05:45:03;98682.50;;;18.12;73.47
60170;BME280;46042;49.444;6.862;2023-07-08T05:47:30;98680.00;;;18.29;72.94
60170;BME280;46042;49.444;6.862;2023-07-08T05:49:57;98685.34;;;18.47;74.15
60170;BME280;46042;49.444;6.862;2023-07-08T05:52:23;98694.38;;;18.64;73.44
60170;BME280;46042;49.444;6.862;2023-07-08T05:54:50;98697.19;;;18.81;73.06
60170;BME280;46042;49.444;6.862;2023-07-08T05:57:20;98709.41;;;19.01;73.49
60170;BME280;46042;49.444;6.862;2023-07-08T05:59:47;98712.22;;;19.18;71.70
60170;BME280;46042;49.444;6.862;2023-07-08T06:02:13;98715.16;;;19.33;71.56
60170;BME280;46042;49.444;6.862;2023-07-08T06:04:40;98721.44;;;19.50;72.77
60170;BME280;46042;49.444;6.862;2023-07-08T06:07:07;98718.72;;;19.68;72.29
60170;BME280;46042;49.444;6.862;2023-07-08T06:09:34;98715.50;;;19.91;71.92
60170;BME280;46042;49.444;6.862;2023-07-08T06:12:01;98712.28;;;20.14;75.32
60170;BME280;46042;49.444;6.862;2023-07-08T06:14:28;98724.09;;;20.38;75.79
60170;BME280;46042;49.444;6.862;2023-07-08T06:16:55;98725.63;;;20.57;69.07
60170;BME280;46042;49.444;6.862;2023-07-08T06:19:22;98733.56;;;20.83;72.79
60170;BME280;46042;49.444;6.862;2023-07-08T06:21:48;98722.38;;;21.05;73.01
60170;BME280;46042;49.444;6.862;2023-07-08T06:24:15;98721.69;;;21.27;66.20
60170;BME280;46042;49.444;6.862;2023-07-08T06:26:42;98723.16;;;21.63;63.46
60170;BME280;46042;49.444;6.862;2023-07-08T06:29:09;98721.28;;;21.88;58.57
60170;BME280;46042;49.444;6.862;2023-07-08T06:31:35;98720.38;;;22.13;57.17
60170;BME280;46042;49.444;6.862;2023-07-08T06:34:03;98712.19;;;22.38;61.46
60170;BME280;46042;49.444;6.862;2023-07-08T06:36:33;98723.16;;;22.59;54.35
60170;BME280;46042;49.444;6.862;2023-07-08T06:39:00;98717.38;;;22.94;62.15
60170;BME280;46042;49.444;6.862;2023-07-08T06:41:26;98727.94;;;23.19;53.38
60170;BME280;46042;49.444;6.862;2023-07-08T06:43:53;98723.19;;;23.44;49.71
60170;BME280;46042;49.444;6.862;2023-07-08T06:46:20;98735.50;;;23.77;48.82
60170;BME280;46042;49.444;6.862;2023-07-08T06:48:47;98734.66;;;23.92;47.62
60170;BME280;46042;49.444;6.862;2023-07-08T06:51:13;98742.00;;;24.13;46.87
60170;BME280;46042;49.444;6.862;2023-07-08T06:53:40;98744.78;;;24.20;46.89
60170;BME280;46042;49.444;6.862;2023-07-08T06:56:07;98745.75;;;24.49;46.08
60170;BME280;46042;49.444;6.862;2023-07-08T06:58:34;98744.81;;;24.93;51.88
60170;BME280;46042;49.444;6.862;2023-07-08T07:01:01;98741.59;;;24.83;48.83
60170;BME280;46042;49.444;6.862;2023-07-08T07:03:28;98743.25;;;24.47;47.48
60170;BME280;46042;49.444;6.862;2023-07-08T07:05:55;98742.53;;;24.38;48.12
60170;BME280;46042;49.444;6.862;2023-07-08T07:08:22;98746.81;;;24.33;48.84
60170;BME280;46042;49.444;6.862;2023-07-08T07:10:49;98751.47;;;24.24;47.81
60170;BME280;46042;49.444;6.862;2023-07-08T07:13:15;98749.13;;;24.36;48.62
60170;BME280;46042;49.444;6.862;2023-07-08T07:15:42;98752.38;;;24.83;49.20
60170;BME280;46042;49.444;6.862;2023-07-08T07:18:09;98751.78;;;25.31;49.24
60170;BME280;46042;49.444;6.862;2023-07-08T07:20:37;98742.72;;;25.61;48.71
60170;BME280;46042;49.444;6.862;2023-07-08T07:23:04;98737.66;;;25.29;47.55
60170;BME280;46042;49.444;6.862;2023-07-08T07:25:31;98749.28;;;25.08;48.80
60170;BME280;46042;49.444;6.862;2023-07-08T07:27:58;98750.38;;;25.35;53.14
60170;BME280;46042;49.444;6.862;2023-07-08T07:30:25;98759.88;;;25.81;50.06
60170;BME280;46042;49.444;6.862;2023-07-08T07:32:52;98766.44;;;26.07;51.03
60170;BME280;46042;49.444;6.862;2023-07-08T07:35:19;98756.69;;;26.06;48.56
60170;BME280;46042;49.444;6.862;2023-07-08T07:37:45;98762.13;;;26.13;48.12
60170;BME280;46042;49.444;6.862;2023-07-08T07:40:13;98763.91;;;26.27;51.94
60170;BME280;46042;49.444;6.862;2023-07-08T07:42:44;98758.97;;;26.45;48.46
60170;BME280;46042;49.444;6.862;2023-07-08T07:45:12;98773.00;;;26.68;47.22
60170;BME280;46042;49.444;6.862;2023-07-08T07:47:39;98770.19;;;26.97;48.43
60170;BME280;46042;49.444;6.862;2023-07-08T07:50:08;98760.03;;;27.26;48.04
60170;BME280;46042;49.444;6.862;2023-07-08T07:52:35;98761.47;;;27.22;51.25
60170;BME280;46042;49.444;6.862;2023-07-08T07:55:03;98770.84;;;27.39;46.94
60170;BME280;46042;49.444;6.862;2023-07-08T07:57:30;98765.63;;;27.78;47.80
60170;BME280;46042;49.444;6.862;2023-07-08T07:59:57;98767.69;;;27.90;46.46
60170;BME280;46042;49.444;6.862;2023-07-08T08:02:23;98766.81;;;28.09;46.48
60170;BME280;46042;49.444;6.862;2023-07-08T08:04:50;98759.88;;;28.41;45.56
60170;BME280;46042;49.444;6.862;2023-07-08T08:07:17;98763.84;;;28.38;47.50
60170;BME280;46042;49.444;6.862;2023-07-08T08:09:44;98768.88;;;28.28;45.29
60170;BME280;46042;49.444;6.862;2023-07-08T08:12:11;98762.66;;;28.66;49.58
60170;BME280;46042;49.444;6.862;2023-07-08T08:14:38;98758.34;;;28.97;47.69
60170;BME280;46042;49.444;6.862;2023-07-08T08:17:06;98761.63;;;29.06;47.73
60170;BME280;46042;49.444;6.862;2023-07-08T08:19:35;98765.13;;;29.38;48.35
60170;BME280;46042;49.444;6.862;2023-07-08T08:22:01;98762.03;;;29.60;52.46
60170;BME280;46042;49.444;6.862;2023-07-08T08:24:28;98766.50;;;29.55;43.35
60170;BME280;46042;49.444;6.862;2023-07-08T08:26:55;98768.44;;;29.47;47.36
60170;BME280;46042;49.444;6.862;2023-07-08T08:29:21;98754.94;;;29.34;43.19
60170;BME280;46042;49.444;6.862;2023-07-08T08:31:48;98764.94;;;29.08;42.98
60170;BME280;46042;49.444;6.862;2023-07-08T08:34:17;98754.16;;;29.59;46.24
60170;BME280;46042;49.444;6.862;2023-07-08T08:36:44;98755.44;;;29.93;44.34
60170;BME280;46042;49.444;6.862;2023-07-08T08:39:10;98757.75;;;30.34;47.55
60170;BME280;46042;49.444;6.862;2023-07-08T08:41:41;98755.47;;;30.49;43.04
60170;BME280;46042;49.444;6.862;2023-07-08T08:44:15;98759.00;;;30.69;51.86
60170;BME280;46042;49.444;6.862;2023-07-08T08:46:51;98759.66;;;30.83;42.00
60170;BME280;46042;49.444;6.862;2023-07-08T08:49:27;98760.16;;;30.91;42.17
60170;BME280;46042;49.444;6.862;2023-07-08T08:51:58;98755.84;;;31.14;41.75
60170;BME280;46042;49.444;6.862;2023-07-08T08:54:25;98745.47;;;31.47;52.17
60170;BME280;46042;49.444;6.862;2023-07-08T08:59:27;98750.75;;;31.18;44.82
60170;BME280;46042;49.444;6.862;2023-07-08T09:01:58;98748.47;;;31.15;41.97
60170;BME280;46042;49.444;6.862;2023-07-08T09:04:33;98743.13;;;31.39;50.88
60170;BME280;46042;49.444;6.862;2023-07-08T09:07:16;98738.25;;;31.53;41.50
60170;BME280;46042;49.444;6.862;2023-07-08T09:09:53;98741.13;;;31.82;41.74
60170;BME280;46042;49.444;6.862;2023-07-08T09:12:26;98734.97;;;31.98;47.10
60170;BME280;46042;49.444;6.862;2023-07-08T09:14:55;98737.56;;;31.69;43.34
60170;BME280;46042;49.444;6.862;2023-07-08T09:17:27;98727.72;;;32.04;43.94
60170;BME280;46042;49.444;6.862;2023-07-08T09:20:17;98734.50;;;32.42;47.17
60170;BME280;46042;49.444;6.862;2023-07-08T09:23:15;98731.13;;;32.81;40.93
60170;BME280;46042;49.444;6.862;2023-07-08T09:25:52;98729.06;;;32.71;38.84
60170;BME280;46042;49.444;6.862;2023-07-08T09:28:20;98727.97;;;32.43;38.52
60170;BME280;46042;49.444;6.862;2023-07-08T09:30:53;98725.56;;;32.76;45.55
60170;BME280;46042;49.444;6.862;2023-07-08T09:33:20;98729.94;;;32.89;40.39
60170;BME280;46042;49.444;6.862;2023-07-08T09:35:47;98724.50;;;33.23;41.52
60170;BME280;46042;49.444;6.862;2023-07-08T09:38:17;98732.19;;;33.26;38.19
60170;BME280;46042;49.444;6.862;2023-07-08T09:40:50;98726.00;;;33.48;38.10
60170;BME280;46042;49.444;6.862;2023-07-08T09:43:28;98724.97;;;33.20;37.00
60170;BME280;46042;49.444;6.862;2023-07-08T09:46:00;98739.38;;;33.32;38.10
60170;BME280;46042;49.444;6.862;2023-07-08T09:48:29;98728.13;;;33.63;43.35
60170;BME280;46042;49.444;6.862;2023-07-08T09:50:57;98730.38;;;33.66;35.63
60170;BME280;46042;49.444;6.862;2023-07-08T09:53:25;98725.28;;;34.14;39.71
60170;BME280;46042;49.444;6.862;2023-07-08T09:55:54;98725.88;;;34.44;41.52
60170;BME280;46042;49.444;6.862;2023-07-08T09:58:30;98727.84;;;34.71;43.63
60170;BME280;46042;49.444;6.862;2023-07-08T10:01:09;98725.19;;;34.54;38.81
60170;BME280;46042;49.444;6.862;2023-07-08T10:03:36;98729.69;;;34.43;36.11
60170;BME280;46042;49.444;6.862;2023-07-08T10:06:21;98739.31;;;34.45;34.43
60170;BME280;46042;49.444;6.862;2023-07-08T10:08:49;98740.06;;;34.41;34.23
60170;BME280;46042;49.444;6.862;2023-07-08T10:13:50;98747.19;;;34.64;34.03
60170;BME280;46042;49.444;6.862;2023-07-08T10:16:38;98744.66;;;34.85;35.74
60170;BME280;46042;49.444;6.862;2023-07-08T10:19:23;98735.63;;;35.12;34.20
60170;BME280;46042;49.444;6.862;2023-07-08T10:25:56;98725.41;;;35.72;41.16
60170;BME280;46042;49.444;6.862;2023-07-08T10:31:25;98728.63;;;34.99;32.42
60170;BME280;46042;49.444;6.862;2023-07-08T10:36:53;98729.09;;;35.18;35.70
60170;BME280;46042;49.444;6.862;2023-07-08T10:44:52;98731.50;;;35.47;32.26
60170;BME280;46042;49.444;6.862;2023-07-08T10:47:42;98727.25;;;35.29;35.66
60170;BME280;46042;49.444;6.862;2023-07-08T10:50:39;98726.50;;;35.71;34.50
60170;BME280;46042;49.444;6.862;2023-07-08T10:56:03;98725.75;;;35.92;35.71
60170;BME280;46042;49.444;6.862;2023-07-08T11:07:32;98713.16;;;36.60;32.00
60170;BME280;46042;49.444;6.862;2023-07-08T11:10:15;98705.72;;;36.60;32.74
60170;BME280;46042;49.444;6.862;2023-07-08T11:12:50;98713.19;;;36.80;31.49
60170;BME280;46042;49.444;6.862;2023-07-08T11:23:48;98708.06;;;38.12;37.40
60170;BME280;46042;49.444;6.862;2023-07-08T11:26:20;98710.78;;;38.17;30.46
60170;BME280;46042;49.444;6.862;2023-07-08T11:28:53;98706.53;;;37.75;30.86
60170;BME280;46042;49.444;6.862;2023-07-08T11:31:22;98694.53;;;38.26;40.14
60170;BME280;46042;49.444;6.862;2023-07-08T11:33:50;98702.19;;;37.37;34.65
60170;BME280;46042;49.444;6.862;2023-07-08T11:36:19;98694.75;;;36.60;35.57
60170;BME280;46042;49.444;6.862;2023-07-08T11:38:52;98690.97;;;37.08;36.39
60170;BME280;46042;49.444;6.862;2023-07-08T11:41:25;98695.84;;;37.68;34.29
60170;BME280;46042;49.444;6.862;2023-07-08T11:43:56;98700.31;;;37.33;29.82
60170;BME280;46042;49.444;6.862;2023-07-08T11:46:29;98697.56;;;37.17;28.16
60170;BME280;46042;49.444;6.862;2023-07-08T11:49:21;98693.38;;;37.66;31.47
60170;BME280;46042;49.444;6.862;2023-07-08T11:51:47;98689.59;;;38.18;28.57
60170;BME280;46042;49.444;6.862;2023-07-08T11:54:27;98682.53;;;37.96;30.02
60170;BME280;46042;49.444;6.862;2023-07-08T11:57:01;98690.94;;;38.25;29.38
60170;BME280;46042;49.444;6.862;2023-07-08T11:59:33;98690.88;;;38.46;28.73
60170;BME280;46042;49.444;6.862;2023-07-08T12:04:53;98686.47;;;38.45;27.43
60170;BME280;46042;49.444;6.862;2023-07-08T12:07:21;98696.94;;;37.67;28.79
60170;BME280;46042;49.444;6.862;2023-07-08T12:10:05;98684.94;;;37.06;32.29
60170;BME280;46042;49.444;6.862;2023-07-08T12:12:36;98689.72;;;36.26;31.19
60170;BME280;46042;49.444;6.862;2023-07-08T12:15:25;98691.75;;;36.87;31.17
60170;BME280;46042;49.444;6.862;2023-07-08T12:18:00;98696.44;;;37.28;30.83
60170;BME280;46042;49.444;6.862;2023-07-08T12:20:36;98690.94;;;37.28;28.10
60170;BME280;46042;49.444;6.862;2023-07-08T12:23:10;98684.72;;;38.09;29.56
60170;BME280;46042;49.444;6.862;2023-07-08T12:25:37;98677.22;;;38.20;33.90
60170;BME280;46042;49.444;6.862;2023-07-08T12:28:04;98687.97;;;38.17;26.37
60170;BME280;46042;49.444;6.862;2023-07-08T12:30:32;98682.72;;;38.20;27.94
60170;BME280;46042;49.444;6.862;2023-07-08T12:33:00;98679.47;;;38.13;26.68
60170;BME280;46042;49.444;6.862;2023-07-08T12:38:02;98680.91;;;38.85;26.63
60170;BME280;46042;49.444;6.862;2023-07-08T12:40:30;98679.13;;;38.70;29.28
60170;BME280;46042;49.444;6.862;2023-07-08T12:42:58;98683.63;;;38.61;28.60
60170;BME280;46042;49.444;6.862;2023-07-08T12:45:29;98687.19;;;38.06;25.10
60170;BME280;46042;49.444;6.862;2023-07-08T12:47:56;98679.38;;;38.74;32.60
60170;BME280;46042;49.444;6.862;2023-07-08T12:50:23;98677.16;;;38.76;24.42
60170;BME280;46042;49.444;6.862;2023-07-08T12:52:50;98679.50;;;38.58;26.73
60170;BME280;46042;49.444;6.862;2023-07-08T12:55:17;98666.31;;;38.95;30.11
60170;BME280;46042;49.444;6.862;2023-07-08T12:57:49;98680.97;;;38.80;27.79
60170;BME280;46042;49.444;6.862;2023-07-08T13:00:31;98672.97;;;37.83;26.45
60170;BME280;46042;49.444;6.862;2023-07-08T13:03:15;98672.59;;;38.61;27.82
60170;BME280;46042;49.444;6.862;2023-07-08T13:05:44;98673.78;;;38.44;26.24
60170;BME280;46042;49.444;6.862;2023-07-08T13:08:12;98680.38;;;38.88;28.52
60170;BME280;46042;49.444;6.862;2023-07-08T13:10:40;98681.78;;;39.15;29.19
60170;BME280;46042;49.444;6.862;2023-07-08T13:13:20;98681.06;;;39.04;31.19
60170;BME280;46042;49.444;6.862;2023-07-08T13:15:48;98680.56;;;38.62;26.14
60170;BME280;46042;49.444;6.862;2023-07-08T13:18:20;98684.31;;;38.32;25.13
60170;BME280;46042;49.444;6.862;2023-07-08T13:20:52;98682.53;;;38.06;26.61
60170;BME280;46042;49.444;6.862;2023-07-08T13:23:21;98685.84;;;38.03;27.03
60170;BME280;46042;49.444;6.862;2023-07-08T13:25:50;98687.53;;;37.83;26.52
60170;BME280;46042;49.444;6.862;2023-07-08T13:28:25;98681.59;;;38.21;27.70
60170;BME280;46042;49.444;6.862;2023-07-08T13:33:22;98685.78;;;38.19;27.71
60170;BME280;46042;49.444;6.862;2023-07-08T13:35:51;98689.31;;;38.19;27.02
60170;BME280;46042;49.444;6.862;2023-07-08T13:38:21;98693.44;;;37.30;25.66
60170;BME280;46042;49.444;6.862;2023-07-08T13:40:57;98678.06;;;37.29;27.20
60170;BME280;46042;49.444;6.862;2023-07-08T13:43:26;98684.00;;;37.72;29.18
60170;BME280;46042;49.444;6.862;2023-07-08T13:45:54;98684.28;;;37.71;26.10
60170;BME280;46042;49.444;6.862;2023-07-08T13:48:28;98679.94;;;38.25;27.62
60170;BME280;46042;49.444;6.862;2023-07-08T13:51:03;98680.28;;;38.13;26.50
60170;BME280;46042;49.444;6.862;2023-07-08T13:56:15;98689.88;;;38.21;24.38
60170;BME280;46042;49.444;6.862;2023-07-08T13:58:48;98694.88;;;38.09;24.63
60170;BME280;46042;49.444;6.862;2023-07-08T14:01:23;98693.53;;;38.06;24.79
60170;BME280;46042;49.444;6.862;2023-07-08T14:03:53;98692.59;;;37.29;24.34
60170;BME280;46042;49.444;6.862;2023-07-08T14:06:27;98694.25;;;37.25;23.74
60170;BME280;46042;49.444;6.862;2023-07-08T14:08:58;98688.94;;;37.81;25.97
60170;BME280;46042;49.444;6.862;2023-07-08T14:11:26;98701.28;;;37.78;25.46